KSVE/SVE METAR and TAF weather

Enter ICAO airport designator
Station Type Date Time Source
KSVE METAR 2020/01/19 23:15 UTC NOAA

KSVE 192315Z AUTO 27004KT 10SM CLR 03/M03 A3025 RMK AO2


Station Type Date Time Source
KSVE Decoded METAR 2020/01/19 23:15 UTC NOAA

Susanville Municipal, CA, United States (KSVE) 40-23N 120-34W
Jan 19, 2020 - 06:15 PM EST / 2020.01.19 2315 UTC
Wind: from the W (270 degrees) at 5 MPH (4 KT):0
Visibility: 10 mile(s):0
Sky conditions: clear
Temperature: 37 F (3 C)
Dew Point: 26 F (-3 C)
Relative Humidity: 64%
Pressure (altimeter): 30.25 in. Hg (1024 hPa)
ob: KSVE 192315Z AUTO 27004KT 10SM CLR 03/M03 A3025 RMK AO2
cycle: 23

Station Type Date Time Source
KSVE TAF UTC NOAA

Error!

Example: see airport list